Time;durP1;ratioP1;P1;durP2;ratioP2;P2;SDS_P1;SDS_P2;PMS_P1;PMS_P2;Temp;Humidity;BMP_temperature;BMP_pressure;BME280_temperature;BME280_humidity;BME280_pressure;Samples;Min_cycle;Max_cycle;Signal;HPM_P1;HPM_P2
2022/11/19 00:01:20;;;;;;;10.50;3.60;;;9.10;99.90;;;;;;5026204;28;20026;-86
2022/11/19 00:03:47;;;;;;;9.40;4.35;;;9.10;99.90;;;;;;5028265;28;20030;-83
2022/11/19 00:06:18;;;;;;;11.18;4.05;;;9.10;99.90;;;;;;5009048;28;20014;-86
2022/11/19 00:08:44;;;;;;;11.35;3.85;;;9.10;99.90;;;;;;5020003;28;20533;-85
2022/11/19 00:11:13;;;;;;;9.07;3.78;;;9.90;99.90;;;;;;5011230;28;20033;-84
2022/11/19 00:13:41;;;;;;;14.50;4.82;;;9.00;99.90;;;;;;5010276;28;20030;-87
2022/11/19 00:16:12;;;;;;;7.75;4.10;;;9.90;99.90;;;;;;5008311;28;20030;-88
2022/11/19 00:18:38;;;;;;;7.68;4.47;;;9.00;99.90;;;;;;5026022;28;20049;-84
2022/11/19 00:21:12;;;;;;;11.63;4.55;;;9.00;99.90;;;;;;5008595;28;20037;-88
2022/11/19 00:23:39;;;;;;;8.35;3.90;;;12.50;99.90;;;;;;5024773;28;20089;-89
2022/11/19 00:26:10;;;;;;;9.45;4.25;;;9.30;99.90;;;;;;5010235;28;20149;-87
2022/11/19 00:28:37;;;;;;;9.30;4.47;;;9.10;99.90;;;;;;5026702;28;20071;-89
2022/11/19 00:31:06;;;;;;;12.10;6.15;;;11.10;99.90;;;;;;5011163;28;20041;-88
2022/11/19 00:33:31;;;;;;;10.48;4.00;;;9.10;99.90;;;;;;5027826;28;20435;-87
2022/11/19 00:36:01;;;;;;;10.38;4.60;;;9.60;99.90;;;;;;5025876;28;20030;-87
2022/11/19 00:38:29;;;;;;;11.70;4.85;;;9.10;99.90;;;;;;5029304;28;20029;-86
2022/11/19 00:40:54;;;;;;;12.55;4.88;;;11.20;99.90;;;;;;5015274;28;20030;-89
2022/11/19 00:46:05;;;;;;;17.88;5.88;;;9.00;99.90;;;;;;5028979;28;20064;-88
2022/11/19 00:48:31;;;;;;;11.43;4.97;;;;;;;;;;5013087;28;20026;-87
2022/11/19 00:50:57;;;;;;;11.43;4.75;;;9.00;99.90;;;;;;5010229;28;20022;-86
2022/11/19 00:53:23;;;;;;;13.38;5.68;;;;;;;;;;5010972;28;20092;-87
2022/11/19 00:55:48;;;;;;;11.52;5.05;;;9.00;99.90;;;;;;5025672;28;20037;-87
2022/11/19 00:58:14;;;;;;;11.93;4.70;;;;;;;;;;5023681;28;20029;-87
2022/11/19 01:00:40;;;;;;;14.48;5.88;;;;;;;;;;5009486;28;20348;-88
2022/11/19 01:03:06;;;;;;;15.95;6.18;;;;;;;;;;4996648;28;20129;-86
2022/11/19 01:05:32;;;;;;;13.68;4.97;;;9.00;99.90;;;;;;5018053;28;20422;-87
2022/11/19 01:07:58;;;;;;;21.70;5.63;;;9.10;99.90;;;;;;5005568;28;20616;-86
2022/11/19 01:10:24;;;;;;;11.65;4.55;;;11.80;99.90;;;;;;5004130;28;20579;-87
2022/11/19 01:15:34;;;;;;;9.65;4.45;;;9.00;99.90;;;;;;5020425;28;20045;-88
2022/11/19 01:18:00;;;;;;;12.77;5.85;;;;;;;;;;5009499;28;20018;-87
2022/11/19 01:20:26;;;;;;;12.48;5.68;;;9.00;99.90;;;;;;5032492;28;20018;-90
2022/11/19 01:22:52;;;;;;;11.13;5.43;;;;;;;;;;5036588;28;20021;-91
2022/11/19 01:25:18;;;;;;;9.65;3.58;;;;;;;;;;5041837;28;20021;-87
2022/11/19 01:27:44;;;;;;;6.63;3.63;;;;;;;;;;5025327;28;20033;-90
2022/11/19 01:30:10;;;;;;;9.50;3.70;;;9.10;99.90;;;;;;5031620;28;20026;-88
2022/11/19 01:32:35;;;;;;;7.78;3.50;;;9.10;99.90;;;;;;5030594;28;20028;-89
2022/11/19 01:35:02;;;;;;;6.95;3.10;;;9.10;99.90;;;;;;5017684;28;20011;-87
2022/11/19 01:37:28;;;;;;;7.40;3.50;;;9.10;99.90;;;;;;5043115;28;20028;-88
2022/11/19 01:39:54;;;;;;;9.38;3.42;;;;;;;;;;5019648;28;20030;-87
2022/11/19 01:45:28;;;;;;;9.02;3.80;;;9.20;99.90;;;;;;5035708;28;20081;-86
2022/11/19 01:47:57;;;;;;;17.67;4.88;;;9.20;99.90;;;;;;5020236;28;20018;-86
2022/11/19 01:50:24;;;;;;;9.10;4.20;;;11.60;99.90;;;;;;5029019;28;20081;-89
2022/11/19 01:52:50;;;;;;;11.77;4.38;;;11.40;99.90;;;;;;5036882;28;20062;-88
2022/11/19 01:55:17;;;;;;;7.38;4.13;;;11.10;99.90;;;;;;5014834;28;20025;-84
2022/11/19 01:57:43;;;;;;;11.80;4.50;;;9.30;99.90;;;;;;5015043;28;20029;-88
2022/11/19 02:00:10;;;;;;;8.80;4.45;;;11.40;99.90;;;;;;5019564;28;20030;-89
2022/11/19 02:02:36;;;;;;;5.82;3.40;;;9.20;99.90;;;;;;5013749;28;20048;-84
2022/11/19 02:05:02;;;;;;;7.93;3.85;;;9.10;99.90;;;;;;5021264;28;20026;-90
2022/11/19 02:07:32;;;;;;;8.75;3.85;;;9.10;99.90;;;;;;5016948;28;20036;-87
2022/11/19 02:10:04;;;;;;;7.10;3.25;;;8.70;99.90;;;;;;5011673;28;20006;-87
2022/11/19 02:12:54;;;;;;;11.30;4.70;;;10.80;99.90;;;;;;5030428;28;20029;-87
2022/11/19 02:15:20;;;;;;;10.23;4.65;;;;;;;;;;5015065;28;20022;-83
2022/11/19 02:18:14;;;;;;;10.90;4.47;;;9.20;99.90;;;;;;5009477;28;20060;-83
2022/11/19 02:20:54;;;;;;;11.20;4.40;;;9.10;99.90;;;;;;5015467;28;20514;-86
2022/11/19 02:23:41;;;;;;;12.25;5.05;;;9.00;99.90;;;;;;5032241;28;20034;-83
2022/11/19 02:26:28;;;;;;;13.25;5.38;;;9.10;99.90;;;;;;5038989;28;20033;-85
2022/11/19 02:28:57;;;;;;;9.68;4.20;;;9.10;99.90;;;;;;5026415;28;20052;-88
2022/11/19 02:31:29;;;;;;;10.00;4.50;;;9.00;99.90;;;;;;5004216;28;20049;-85
2022/11/19 02:34:07;;;;;;;11.80;4.53;;;9.80;99.90;;;;;;5014861;28;20019;-83
2022/11/19 02:36:43;;;;;;;10.63;4.90;;;10.60;99.90;;;;;;5020197;28;20032;-83
2022/11/19 02:39:22;;;;;;;10.05;4.15;;;11.20;99.90;;;;;;5021417;28;20026;-86
2022/11/19 02:41:57;;;;;;;12.15;6.32;;;9.00;99.90;;;;;;5015182;28;20032;-84
2022/11/19 02:47:17;;;;;;;11.53;4.97;;;9.10;99.90;;;;;;5033160;28;20092;-83
2022/11/19 02:49:44;;;;;;;10.32;5.47;;;9.10;99.90;;;;;;5009082;28;20281;-83
2022/11/19 02:52:12;;;;;;;7.75;4.35;;;12.40;99.90;;;;;;5018153;28;20034;-86
2022/11/19 02:54:38;;;;;;;6.55;3.83;;;12.10;99.90;;;;;;5021419;28;20026;-85
2022/11/19 02:57:04;;;;;;;9.40;3.95;;;;;;;;;;5026171;28;20033;-87
2022/11/19 03:05:21;;;;;;;8.75;4.35;;;9.00;99.90;;;;;;5031889;28;20029;-84
2022/11/19 03:07:47;;;;;;;12.35;4.95;;;9.20;99.90;;;;;;5005329;28;20030;-84
2022/11/19 03:10:15;;;;;;;8.45;4.78;;;10.30;99.90;;;;;;5005222;28;20022;-85
2022/11/19 03:18:53;;;;;;;9.27;4.63;;;9.20;99.90;;;;;;5019390;28;20036;-89
2022/11/19 03:21:44;;;;;;;10.57;5.32;;;9.10;99.90;;;;;;4999188;28;20050;-88
2022/11/19 03:24:15;;;;;;;23.75;12.10;;;12.10;99.90;;;;;;5017419;28;20025;-84
2022/11/19 03:26:52;;;;;;;11.68;6.68;;;11.20;99.90;;;;;;5000108;28;20026;-85
2022/11/19 03:29:20;;;;;;;7.30;4.60;;;9.20;99.90;;;;;;5015110;28;20467;-85
2022/11/19 03:31:50;;;;;;;9.95;5.63;;;11.80;99.90;;;;;;5001346;28;20029;-83
2022/11/19 03:34:21;;;;;;;9.98;5.32;;;10.70;99.90;;;;;;5008114;28;20025;-85
2022/11/19 03:36:49;;;;;;;9.23;4.45;;;11.50;99.90;;;;;;5009850;28;20027;-85
2022/11/19 03:39:18;;;;;;;7.18;4.00;;;10.60;99.90;;;;;;5003340;28;20430;-84
2022/11/19 03:41:47;;;;;;;9.70;3.80;;;12.80;99.90;;;;;;5020231;28;20026;-84
2022/11/19 03:44:20;;;;;;;8.27;3.13;;;10.00;99.90;;;;;;5029249;28;20113;-84
2022/11/19 03:46:49;;;;;;;8.63;3.10;;;11.10;99.90;;;;;;5018512;28;20029;-85
2022/11/19 03:49:19;;;;;;;9.07;3.40;;;12.40;99.90;;;;;;5000648;28;20030;-88
2022/11/19 03:51:52;;;;;;;9.23;3.60;;;10.30;99.90;;;;;;5006649;28;20487;-88
2022/11/19 03:54:19;;;;;;;9.73;3.10;;;9.20;99.90;;;;;;5007079;28;20026;-84
2022/11/19 03:56:47;;;;;;;6.53;2.85;;;11.40;99.90;;;;;;5003173;28;20068;-85
2022/11/19 03:59:12;;;;;;;6.60;2.60;;;8.70;99.90;;;;;;4988668;28;20049;-82
2022/11/19 04:01:39;;;;;;;9.48;2.40;;;9.80;99.90;;;;;;5013625;28;20018;-85
2022/11/19 04:06:49;;;;;;;3.78;1.70;;;9.20;99.90;;;;;;5029154;28;20049;-87
2022/11/19 04:09:15;;;;;;;5.65;1.92;;;11.90;99.90;;;;;;5007694;28;20029;-87
2022/11/19 04:11:42;;;;;;;7.30;2.30;;;9.10;99.90;;;;;;5013182;28;20495;-83
2022/11/19 04:14:07;;;;;;;6.05;1.73;;;9.50;99.90;;;;;;5011870;28;20053;-85
2022/11/19 04:16:33;;;;;;;6.93;1.90;;;;;;;;;;4994543;28;20458;-85
2022/11/19 04:18:59;;;;;;;5.30;1.65;;;9.10;99.90;;;;;;5024481;28;20018;-85
2022/11/19 04:21:25;;;;;;;10.27;1.90;;;;;;;;;;5015244;28;20093;-88
2022/11/19 04:23:51;;;;;;;5.35;1.52;;;;;;;;;;5021012;28;20030;-86
2022/11/19 04:26:17;;;;;;;5.88;1.48;;;;;;;;;;5010187;28;20098;-83
2022/11/19 04:28:43;;;;;;;5.47;1.45;;;;;;;;;;5008103;28;20026;-87
2022/11/19 04:31:08;;;;;;;3.28;1.35;;;9.00;99.90;;;;;;5025313;28;20018;-86
2022/11/19 04:33:35;;;;;;;5.85;1.52;;;;;;;;;;5008026;28;20030;-83
2022/11/19 04:36:01;;;;;;;4.32;1.50;;;9.10;99.90;;;;;;5020694;28;20369;-86
2022/11/19 04:38:26;;;;;;;4.75;1.58;;;;;;;;;;5006648;28;20041;-87
2022/11/19 04:40:52;;;;;;;3.92;1.30;;;;;;;;;;5008599;28;20029;-89
2022/11/19 04:43:18;;;;;;;5.00;1.50;;;;;;;;;;4991009;28;20065;-87
2022/11/19 04:45:44;;;;;;;4.68;1.40;;;;;;;;;;5020165;28;20033;-87
2022/11/19 04:48:10;;;;;;;4.05;1.63;;;9.00;99.90;;;;;;5025562;28;20026;-85
2022/11/19 04:50:36;;;;;;;4.97;1.48;;;;;;;;;;5004847;28;20460;-87
2022/11/19 04:53:02;;;;;;;4.88;1.52;;;;;;;;;;5005667;28;20064;-85
2022/11/19 04:55:28;;;;;;;6.93;1.50;;;;;;;;;;5009891;28;20093;-84
2022/11/19 04:57:54;;;;;;;4.18;1.40;;;;;;;;;;5025361;28;20495;-85
2022/11/19 05:00:19;;;;;;;3.03;1.30;;;9.00;99.90;;;;;;5001961;28;20019;-87
2022/11/19 05:02:45;;;;;;;5.05;1.52;;;10.40;99.90;;;;;;5019621;28;20056;-88
2022/11/19 05:05:11;;;;;;;4.53;1.60;;;;;;;;;;4998432;28;20033;-86
2022/11/19 05:07:37;;;;;;;5.38;1.70;;;;;;;;;;5007664;28;20030;-86
2022/11/19 05:10:03;;;;;;;2.47;1.40;;;8.90;99.90;;;;;;5027297;28;20018;-88
2022/11/19 05:12:29;;;;;;;7.15;1.50;;;8.90;99.90;;;;;;5007165;28;20025;-88
2022/11/19 05:14:55;;;;;;;5.70;1.55;;;;;;;;;;5009605;28;20057;-90
2022/11/19 05:17:21;;;;;;;6.13;2.00;;;;;;;;;;5012055;28;20022;-88
2022/11/19 05:19:46;;;;;;;3.72;1.60;;;8.90;99.90;;;;;;5019565;28;20010;-89
2022/11/19 05:22:12;;;;;;;5.63;1.63;;;;;;;;;;5023367;28;20034;-89
2022/11/19 05:24:38;;;;;;;2.58;1.38;;;;;;;;;;5027244;28;20045;-84
2022/11/19 05:27:04;;;;;;;4.80;1.60;;;8.90;99.90;;;;;;5008557;28;20094;-84
2022/11/19 05:29:30;;;;;;;2.38;1.33;;;9.20;99.90;;;;;;5015694;28;20176;-86
2022/11/19 05:31:55;;;;;;;6.00;1.67;;;11.50;99.90;;;;;;5003078;28;20033;-86
2022/11/19 05:34:21;;;;;;;4.95;1.65;;;;;;;;;;5025738;28;20224;-86
2022/11/19 05:36:47;;;;;;;7.68;1.83;;;;;;;;;;5008118;28;20045;-89
2022/11/19 05:39:13;;;;;;;6.30;1.80;;;8.80;99.90;;;;;;5006115;28;20026;-88
2022/11/19 05:41:39;;;;;;;4.80;1.65;;;;;;;;;;5018786;28;20022;-87
2022/11/19 05:44:05;;;;;;;8.48;1.80;;;;;;;;;;5020902;28;20587;-89
2022/11/19 05:46:31;;;;;;;5.75;1.95;;;;;;;;;;5036564;28;20542;-89
2022/11/19 05:48:57;;;;;;;9.15;2.10;;;;;;;;;;5032741;28;20025;-90
2022/11/19 05:51:23;;;;;;;6.72;2.08;;;;;;;;;;5033312;28;20029;-84
2022/11/19 05:53:49;;;;;;;8.05;2.13;;;;;;;;;;5032664;28;20014;-85
2022/11/19 05:56:15;;;;;;;6.00;2.20;;;;;;;;;;5034624;28;20038;-87
2022/11/19 05:58:41;;;;;;;5.93;2.00;;;;;;;;;;5027953;28;20037;-88
2022/11/19 06:01:06;;;;;;;3.45;1.75;;;8.70;99.90;;;;;;5030372;28;20117;-86
2022/11/19 06:03:32;;;;;;;3.67;1.88;;;8.80;99.90;;;;;;5031862;28;20045;-87
2022/11/19 06:05:58;;;;;;;5.20;1.77;;;10.10;99.90;;;;;;5016926;28;20033;-83
2022/11/19 06:08:23;;;;;;;5.38;1.60;;;;;;;;;;5018886;28;20014;-86
2022/11/19 06:10:49;;;;;;;5.25;1.80;;;;;;;;;;5019706;28;20466;-87
2022/11/19 06:13:16;;;;;;;6.80;1.83;;;8.80;99.90;;;;;;5041620;28;20018;-83
2022/11/19 06:15:42;;;;;;;4.28;1.83;;;;;;;;;;5016083;28;20029;-84
2022/11/19 06:18:08;;;;;;;5.72;2.25;;;;;;;;;;5013896;28;20090;-84
2022/11/19 06:20:33;;;;;;;5.00;1.67;;;8.70;99.90;;;;;;5023130;28;20022;-86
2022/11/19 06:22:59;;;;;;;7.28;1.90;;;11.80;99.90;;;;;;5013398;28;20503;-85
2022/11/19 06:25:24;;;;;;;5.25;1.73;;;11.60;99.90;;;;;;5013752;28;20038;-83
2022/11/19 06:27:50;;;;;;;8.25;2.20;;;;;;;;;;5026635;28;20026;-85
2022/11/19 06:30:16;;;;;;;5.75;2.13;;;;;;;;;;5011286;28;20030;-86
2022/11/19 06:32:43;;;;;;;4.05;2.00;;;8.70;99.90;;;;;;5024858;28;20018;-85
2022/11/19 06:35:09;;;;;;;6.57;2.10;;;11.60;99.90;;;;;;5023229;28;20075;-85
2022/11/19 06:37:35;;;;;;;3.92;1.80;;;11.10;99.90;;;;;;5021110;28;20030;-85
2022/11/19 06:40:01;;;;;;;4.97;2.00;;;11.60;99.90;;;;;;5012942;28;20034;-87
2022/11/19 06:42:36;;;;;;;5.85;1.92;;;8.60;99.90;;;;;;5025910;28;20033;-87
2022/11/19 06:45:13;;;;;;;5.53;1.90;;;8.70;99.90;;;;;;5030908;28;20097;-87
2022/11/19 06:47:40;;;;;;;3.20;1.67;;;8.70;99.90;;;;;;5004363;28;20026;-88
2022/11/19 06:50:08;;;;;;;5.90;1.73;;;8.70;99.90;;;;;;5015327;28;20050;-87
2022/11/19 06:52:34;;;;;;;3.72;2.00;;;9.10;99.90;;;;;;5025893;28;20085;-88
2022/11/19 06:55:00;;;;;;;4.28;2.03;;;;;;;;;;5013925;28;20064;-85
2022/11/19 06:57:25;;;;;;;4.70;1.83;;;8.60;99.90;;;;;;5030555;28;20029;-89
2022/11/19 06:59:51;;;;;;;6.78;2.75;;;8.60;99.90;;;;;;5009079;28;20117;-88
2022/11/19 07:02:17;;;;;;;8.38;2.65;;;;;;;;;;5029216;28;20055;-84
2022/11/19 07:04:43;;;;;;;5.97;2.30;;;8.50;99.90;;;;;;5004959;28;20117;-85
2022/11/19 07:07:09;;;;;;;5.78;2.10;;;10.00;99.90;;;;;;5001766;28;20026;-88
2022/11/19 07:09:35;;;;;;;6.15;2.05;;;12.10;99.90;;;;;;5015356;28;20458;-85
2022/11/19 07:12:01;;;;;;;4.38;2.20;;;;;;;;;;5008365;28;20052;-85
2022/11/19 07:14:27;;;;;;;9.40;2.92;;;;;;;;;;5025855;28;20030;-84
2022/11/19 07:16:53;;;;;;;6.07;2.47;;;;;;;;;;5025623;28;20036;-84
2022/11/19 07:19:19;;;;;;;5.97;2.30;;;;;;;;;;5007374;28;20117;-86
2022/11/19 07:21:45;;;;;;;7.00;2.85;;;8.50;99.90;;;;;;5024879;28;20499;-86
2022/11/19 07:24:11;;;;;;;5.95;2.63;;;;;;;;;;5033659;28;20033;-86
2022/11/19 07:26:37;;;;;;;6.65;2.92;;;8.50;99.90;;;;;;5019674;28;20073;-88
2022/11/19 07:29:06;;;;;;;6.88;2.90;;;11.30;99.90;;;;;;5032247;28;23453;-89
2022/11/19 07:31:32;;;;;;;7.45;2.60;;;11.20;99.90;;;;;;5042522;28;20028;-88
2022/11/19 07:33:58;;;;;;;5.25;2.22;;;10.30;99.90;;;;;;5002718;28;20487;-88
2022/11/19 07:36:24;;;;;;;6.43;2.90;;;8.50;99.90;;;;;;5017411;28;20502;-88
2022/11/19 07:38:51;;;;;;;6.32;2.67;;;;;;;;;;5026875;28;20014;-87
2022/11/19 07:44:03;;;;;;;6.20;2.60;;;8.60;99.90;;;;;;5026147;28;20045;-86
2022/11/19 07:46:28;;;;;;;7.57;2.88;;;8.70;99.90;;;;;;5025609;28;20082;-89
2022/11/19 07:48:56;;;;;;;9.07;3.45;;;8.70;99.90;;;;;;5016948;28;20037;-86
2022/11/19 07:51:22;;;;;;;11.48;2.97;;;11.50;99.90;;;;;;5014321;28;20027;-89
2022/11/19 07:53:48;;;;;;;6.22;3.20;;;;;;;;;;5019938;28;20471;-88
2022/11/19 07:56:15;;;;;;;5.30;2.90;;;;;;;;;;5029813;28;20034;-89
2022/11/19 07:58:40;;;;;;;5.30;3.10;;;8.70;99.90;;;;;;5030203;28;20050;-90
2022/11/19 08:01:12;;;;;;;5.68;3.17;;;8.70;99.90;;;;;;5030964;28;20225;-86
2022/11/19 08:03:40;;;;;;;6.88;2.90;;;;;;;;;;5011005;28;20042;-89
2022/11/19 08:06:06;;;;;;;8.63;3.10;;;8.70;99.90;;;;;;5033494;28;20395;-90
2022/11/19 08:08:33;;;;;;;8.27;3.45;;;8.60;99.90;;;;;;5028064;28;20022;-88
2022/11/19 08:11:06;;;;;;;7.03;3.60;;;8.70;99.90;;;;;;5024311;28;20018;-89
2022/11/19 08:13:33;;;;;;;9.00;4.35;;;7.60;99.90;;;;;;5014324;28;20093;-89
2022/11/19 08:16:04;;;;;;;7.68;3.58;;;11.00;99.90;;;;;;4994842;28;20046;-89
2022/11/19 08:18:30;;;;;;;11.18;3.28;;;10.80;99.90;;;;;;5002662;28;20026;-88
2022/11/19 08:21:16;;;;;;;8.32;3.25;;;10.20;99.90;;;;;;5018535;28;20092;-87
2022/11/19 08:23:42;;;;;;;7.25;3.58;;;8.70;99.90;;;;;;5003877;28;20042;-88
2022/11/19 08:26:08;;;;;;;8.68;3.45;;;;;;;;;;5024954;28;20051;-88
2022/11/19 08:28:34;;;;;;;9.05;3.60;;;8.80;99.90;;;;;;5014030;28;20085;-85
2022/11/19 08:31:06;;;;;;;6.10;3.40;;;11.00;99.90;;;;;;5026518;28;20021;-86
2022/11/19 08:33:32;;;;;;;5.57;3.47;;;10.50;99.90;;;;;;5000548;28;20033;-88
2022/11/19 08:35:57;;;;;;;9.85;5.43;;;12.20;99.90;;;;;;5043892;28;20034;-85
2022/11/19 08:38:23;;;;;;;8.10;3.50;;;11.80;99.90;;;;;;5016811;28;20028;-87
2022/11/19 08:42:58;;;;;;;8.55;3.80;;;9.00;99.90;;;;;;5020953;28;20010;-88
2022/11/19 08:43:39;;;;;;;13.77;4.20;;;;;;;;;;5032185;28;20009;-88
2022/11/19 08:46:05;;;;;;;6.43;3.50;;;9.00;99.90;;;;;;5035676;28;20038;-86
2022/11/19 08:48:31;;;;;;;7.70;3.33;;;;;;;;;;5032548;28;20042;-87
2022/11/19 08:50:57;;;;;;;13.40;3.75;;;9.10;99.90;;;;;;5028780;28;20037;-85
2022/11/19 08:53:23;;;;;;;8.00;3.85;;;7.30;99.90;;;;;;4998990;28;20030;-87
2022/11/19 08:55:52;;;;;;;8.30;3.78;;;11.00;99.90;;;;;;5021029;28;20021;-91
2022/11/19 08:58:18;;;;;;;7.18;4.00;;;;;;;;;;5021953;28;20040;-87
2022/11/19 09:00:44;;;;;;;8.50;3.83;;;;;;;;;;5017394;28;20018;-87
2022/11/19 09:03:13;;;;;;;10.73;3.90;;;;;;;;;;5037157;28;20042;-86
2022/11/19 09:05:39;;;;;;;9.88;3.90;;;;;;;;;;5016263;28;20029;-90
2022/11/19 09:08:06;;;;;;;8.35;4.28;;;;;;;;;;5018591;28;20050;-89
2022/11/19 09:10:32;;;;;;;7.45;4.20;;;9.20;99.90;;;;;;5015882;28;20005;-86
2022/11/19 09:12:58;;;;;;;9.70;4.18;;;;;;;;;;5021619;28;20061;-88
2022/11/19 09:15:24;;;;;;;6.38;3.60;;;;;;;;;;5005824;28;20042;-87
2022/11/19 09:17:51;;;;;;;7.63;4.45;;;9.20;99.90;;;;;;5014638;28;20022;-88
2022/11/19 09:20:16;;;;;;;7.97;4.20;;;11.00;99.90;;;;;;5011025;28;20025;-90
2022/11/19 09:22:42;;;;;;;9.13;4.28;;;;;;;;;;5015375;28;20038;-90
2022/11/19 09:25:08;;;;;;;8.07;3.75;;;9.40;99.90;;;;;;5032440;28;20112;-88
2022/11/19 09:27:35;;;;;;;8.82;3.80;;;9.40;99.90;;;;;;5019612;28;20002;-88
2022/11/19 09:30:01;;;;;;;6.63;3.63;;;9.40;99.90;;;;;;5020099;28;20018;-88
2022/11/19 09:32:28;;;;;;;7.65;3.80;;;;;;;;;;5018171;28;20041;-89
2022/11/19 09:34:54;;;;;;;6.20;3.60;;;;;;;;;;5018896;28;20010;-89
2022/11/19 09:37:19;;;;;;;6.82;3.65;;;9.40;99.90;;;;;;5018848;28;20033;-90
2022/11/19 09:39:45;;;;;;;7.90;3.92;;;;;;;;;;5016868;28;20014;-87
2022/11/19 09:42:32;;;;;;;7.13;4.70;;;9.50;99.90;;;;;;5014603;28;20040;-88
2022/11/19 09:45:11;;;;;;;8.18;4.18;;;9.70;99.90;;;;;;5017021;28;20104;-86
2022/11/19 09:48:14;;;;;;;7.40;3.65;;;9.80;99.90;;;;;;5015574;28;20046;-87
2022/11/19 09:50:49;;;;;;;7.32;3.90;;;9.80;99.90;;;;;;5010311;28;20018;-87
2022/11/19 09:53:19;;;;;;;6.90;3.53;;;11.60;99.90;;;;;;5019731;28;20121;-87
2022/11/19 09:56:21;;;;;;;7.38;3.65;;;10.00;99.90;;;;;;5008794;28;20034;-84
2022/11/19 09:58:47;;;;;;;7.72;3.63;;;10.00;99.90;;;;;;5020664;28;20089;-84
2022/11/19 10:01:16;;;;;;;9.25;3.83;;;10.00;99.90;;;;;;5015841;28;20026;-89
2022/11/19 10:03:51;;;;;;;6.18;3.78;;;10.00;99.90;;;;;;5019242;28;20033;-87
2022/11/19 10:06:29;;;;;;;7.72;3.58;;;10.10;99.90;;;;;;5037685;28;20069;-85
2022/11/19 10:09:14;;;;;;;6.43;3.80;;;10.10;99.90;;;;;;5029828;28;20025;-89
2022/11/19 10:11:58;;;;;;;7.97;3.80;;;9.90;99.90;;;;;;5010000;28;20050;-88
2022/11/19 10:15:07;;;;;;;10.52;3.90;;;9.90;99.90;;;;;;5016428;28;20006;-87
2022/11/19 10:17:34;;;;;;;8.30;3.55;;;;;;;;;;5032564;28;20069;-87
2022/11/19 10:20:20;;;;;;;7.97;3.90;;;9.80;99.90;;;;;;5021389;28;20018;-87
2022/11/19 10:23:15;;;;;;;8.20;3.80;;;9.80;99.90;;;;;;5033938;28;20014;-88
2022/11/19 10:26:06;;;;;;;7.97;3.67;;;9.70;99.90;;;;;;5030835;28;20014;-86
2022/11/19 10:28:54;;;;;;;5.30;3.80;;;9.70;99.90;;;;;;5019403;28;20105;-87
2022/11/19 10:31:36;;;;;;;6.35;3.97;;;9.80;99.90;;;;;;5023041;28;20030;-90
2022/11/19 10:34:24;;;;;;;6.35;3.40;;;9.80;99.90;;;;;;5030242;28;20033;-88
2022/11/19 10:40:26;;;;;;;5.90;4.03;;;9.90;99.90;;;;;;4992151;28;20058;-87
2022/11/19 13:11:20;;;;;;;9.55;5.43;;;10.10;99.90;;;;;;4975752;28;20039;-85
2022/11/19 13:13:58;;;;;;;8.23;4.57;;;10.20;99.90;;;;;;4978687;28;20101;-85
2022/11/19 13:16:27;;;;;;;7.63;4.55;;;10.30;99.90;;;;;;4960941;28;20042;-83
2022/11/19 13:19:03;;;;;;;6.82;4.03;;;10.10;99.90;;;;;;4955888;28;20027;-86
2022/11/19 13:21:50;;;;;;;9.23;5.40;;;10.00;99.90;;;;;;4953697;28;20539;-83
2022/11/19 13:24:26;;;;;;;7.85;4.97;;;10.00;99.90;;;;;;4972714;28;20035;-82
2022/11/19 13:26:55;;;;;;;8.32;4.60;;;10.10;99.90;;;;;;4953942;28;20450;-85
2022/11/19 13:29:34;;;;;;;10.18;5.10;;;10.10;99.90;;;;;;4964926;28;20019;-86
2022/11/19 13:32:12;;;;;;;10.10;4.45;;;10.10;99.90;;;;;;4966278;28;20102;-85
2022/11/19 13:34:44;;;;;;;8.52;4.90;;;10.10;99.90;;;;;;4971134;28;20046;-84
2022/11/19 13:37:18;;;;;;;8.68;4.55;;;10.10;99.90;;;;;;4950947;28;20027;-84
2022/11/19 13:40:01;;;;;;;9.40;4.47;;;10.00;99.90;;;;;;4950328;28;20526;-84
2022/11/19 13:45:14;;;;;;;14.05;5.38;;;10.00;99.90;;;;;;4973056;28;20038;-87
2022/11/19 13:47:42;;;;;;;9.25;4.60;;;10.10;99.90;;;;;;4950265;28;20026;-88
2022/11/19 13:50:17;;;;;;;10.45;5.07;;;10.00;99.90;;;;;;4977864;28;20026;-84
2022/11/19 13:53:06;;;;;;;11.35;5.78;;;11.30;99.90;;;;;;4963590;28;20433;-86
2022/11/19 13:55:39;;;;;;;6.25;4.22;;;9.90;99.90;;;;;;4949679;28;20042;-84
2022/11/19 13:58:07;;;;;;;8.55;4.32;;;9.90;99.90;;;;;;4957245;28;20023;-86
2022/11/19 14:00:33;;;;;;;7.82;3.90;;;10.20;99.90;;;;;;4954169;28;20030;-88
2022/11/19 14:03:21;;;;;;;5.30;3.50;;;10.30;99.90;;;;;;4953839;28;20114;-85
2022/11/19 14:06:21;;;;;;;7.07;4.32;;;10.00;99.90;;;;;;4956564;28;20137;-87
2022/11/19 14:09:05;;;;;;;8.82;4.05;;;10.00;99.90;;;;;;4950820;29;20035;-86
2022/11/19 14:12:06;;;;;;;6.38;3.80;;;10.00;99.90;;;;;;4979969;28;20098;-85
2022/11/19 14:26:39;;;;;;;6.25;3.55;;;;;;;;;;4980149;28;20042;-88
2022/11/19 14:29:26;;;;;;;5.80;3.88;;;10.10;99.90;;;;;;4963098;28;20027;-87
2022/11/19 14:32:06;;;;;;;7.25;4.97;;;10.10;99.90;;;;;;4977281;28;20089;-85
2022/11/19 14:34:35;;;;;;;8.98;4.68;;;10.10;99.90;;;;;;4961165;28;20023;-87
2022/11/19 14:37:21;;;;;;;7.25;4.40;;;10.10;99.90;;;;;;4965052;28;20061;-87
2022/11/19 14:39:51;;;;;;;7.00;4.22;;;;;;;;;;4960552;28;20047;-85
2022/11/19 14:42:21;;;;;;;8.63;4.43;;;10.10;99.90;;;;;;4957654;28;20043;-84
2022/11/19 14:45:02;;;;;;;8.00;4.53;;;10.10;99.90;;;;;;4956821;28;20030;-87
2022/11/19 14:47:36;;;;;;;8.88;4.45;;;10.10;99.90;;;;;;4955323;28;20038;-85
2022/11/19 14:50:07;;;;;;;6.45;3.75;;;10.10;99.90;;;;;;4957474;28;20378;-87
2022/11/19 14:52:47;;;;;;;9.25;4.88;;;10.10;99.90;;;;;;4959910;28;20038;-84
2022/11/19 14:55:13;;;;;;;6.85;3.70;;;;;;;;;;4971733;28;20059;-87
2022/11/19 14:57:41;;;;;;;8.80;4.35;;;10.10;99.90;;;;;;4974959;28;20031;-85
2022/11/19 15:00:31;;;;;;;7.20;4.18;;;10.10;99.90;;;;;;4956217;28;20030;-88
2022/11/19 15:02:57;;;;;;;9.05;4.65;;;10.10;99.90;;;;;;4956277;28;20031;-87
2022/11/19 15:05:28;;;;;;;11.02;4.18;;;10.00;99.90;;;;;;4961062;28;20042;-85
2022/11/19 15:08:16;;;;;;;8.95;4.72;;;10.00;99.90;;;;;;4952298;29;20067;-87
2022/11/19 15:10:46;;;;;;;10.57;5.18;;;10.10;99.90;;;;;;4973468;28;20166;-85
2022/11/19 15:13:16;;;;;;;11.48;5.15;;;;;;;;;;4950233;28;20078;-87
2022/11/19 15:15:43;;;;;;;11.95;6.38;;;10.00;99.90;;;;;;4976432;28;20110;-88
2022/11/19 15:18:32;;;;;;;12.57;6.28;;;10.00;99.90;;;;;;4958359;28;20117;-86
2022/11/19 15:21:15;;;;;;;12.82;5.53;;;10.00;99.90;;;;;;4947711;28;20027;-85
2022/11/19 15:24:08;;;;;;;13.95;7.55;;;10.10;99.90;;;;;;4966755;28;20026;-88
2022/11/19 15:26:34;;;;;;;8.07;4.90;;;;;;;;;;4958827;29;20082;-85
2022/11/19 15:29:27;;;;;;;6.75;3.65;;;10.00;99.90;;;;;;4953280;28;20083;-84
2022/11/19 15:32:17;;;;;;;9.95;4.53;;;10.00;99.90;;;;;;4949859;28;20034;-83
2022/11/19 15:34:49;;;;;;;10.50;4.50;;;;;;;;;;4971695;28;20026;-87
2022/11/19 15:37:20;;;;;;;9.48;4.00;;;9.90;99.90;;;;;;4950779;28;20035;-87
2022/11/19 15:39:55;;;;;;;8.95;3.38;;;9.90;99.90;;;;;;4972343;28;20029;-85
2022/11/19 15:42:40;;;;;;;7.60;3.30;;;9.90;99.90;;;;;;4955756;28;20031;-86
2022/11/19 15:45:14;;;;;;;8.40;3.60;;;12.00;99.90;;;;;;4962234;28;20027;-86
2022/11/19 15:47:45;;;;;;;8.85;5.07;;;9.80;99.90;;;;;;4967038;28;20170;-87
2022/11/19 15:50:21;;;;;;;7.22;3.67;;;9.80;99.90;;;;;;4976001;28;20468;-88
2022/11/19 15:52:58;;;;;;;7.63;3.83;;;9.80;99.90;;;;;;4963596;28;20039;-87
2022/11/19 15:55:27;;;;;;;11.98;8.00;;;9.80;99.90;;;;;;4959419;28;20030;-89
2022/11/19 15:57:54;;;;;;;7.72;3.75;;;9.70;99.90;;;;;;4946049;28;20495;-87
2022/11/19 16:00:21;;;;;;;11.32;5.20;;;9.70;99.90;;;;;;4971489;28;20015;-91
2022/11/19 16:02:52;;;;;;;12.32;4.90;;;9.70;99.90;;;;;;4961737;28;20035;-90
2022/11/19 16:05:24;;;;;;;5.57;3.00;;;;;;;;;;4947075;29;20574;-87
2022/11/19 16:07:51;;;;;;;10.38;4.40;;;9.70;99.90;;;;;;4947323;29;20120;-87
2022/11/19 16:10:23;;;;;;;5.68;3.58;;;9.70;99.90;;;;;;4944953;29;20050;-89
2022/11/19 16:18:50;;;;;;;9.43;4.82;;;;;;;;;;4982617;28;20045;-88
2022/11/19 16:21:31;;;;;;;9.85;4.50;;;9.60;99.90;;;;;;4967581;28;20030;-87
2022/11/19 16:26:43;;;;;;;8.65;3.78;;;9.60;99.90;;;;;;4985894;28;19957;-89
2022/11/19 16:29:20;;;;;;;9.52;3.80;;;9.60;99.90;;;;;;4945980;28;20039;-89
2022/11/19 16:31:58;;;;;;;9.40;4.07;;;9.60;99.90;;;;;;4944958;29;20055;-89
2022/11/19 16:34:26;;;;;;;8.98;4.35;;;;;;;;;;4947026;29;20028;-88
2022/11/19 16:36:53;;;;;;;8.93;4.65;;;;;;;;;;4932226;29;20031;-89
2022/11/19 16:39:23;;;;;;;8.43;4.30;;;;;;;;;;4963850;28;20031;-88
2022/11/19 16:44:34;;;;;;;11.63;8.30;;;;;;;;;;4962122;29;20045;-85
2022/11/19 16:47:07;;;;;;;10.13;5.55;;;9.60;99.90;;;;;;4944829;29;20502;-89
2022/11/19 16:49:39;;;;;;;11.93;5.95;;;;;;;;;;4944910;29;20511;-88
2022/11/19 16:52:06;;;;;;;13.70;6.43;;;;;;;;;;4943890;29;20121;-86
2022/11/19 16:54:49;;;;;;;13.93;5.95;;;;;;;;;;4946491;29;20095;-89
2022/11/19 16:57:20;;;;;;;15.07;6.78;;;;;;;;;;4962914;29;20029;-90
2022/11/19 16:59:51;;;;;;;13.82;7.63;;;;;;;;;;4962058;28;20024;-89
2022/11/19 17:02:18;;;;;;;12.52;7.40;;;;;;;;;;4963940;29;20384;-89